Weather observations for the past three days for
MCPHERSON
Metric (Imperial)
Date Time (cdt) Wind (kph) Vis. (km) Weather Sky Cond. Temperature (ºC) Relative Humidity Wind Chill (°C) Heat Index (°C) Pressure Precipitation (cm)
Air Dwpt 6 hour altimeter (cm) sea level (mb) 1 hr 3 hr 6 hr
Max. Min.
07 14:35 SW 33 G 43 16.09 Fair and Breezy CLR 23.6 3.3 27% 75.95 0.0
07 14:15 SW 31 G 39 16.09 Fair CLR 22.5 3.4 29% 75.97 0.0
07 13:55 SW 26 G 37 16.09 Fair CLR 21.8 3.1 29% 76 0.0
07 13:35 SW 26 G 41 16.09 Fair CLR 21.3 3.2 30% 76.02 0.0
07 13:15 SW 30 G 43 16.09 Fair CLR 21 3.1 31% 76.05 0.0
07 12:55 S 28 G 39 16.09 Fair CLR 20 2.8 20.7 3.3 32% 76.07 0.0
07 12:35 SW 24 G 41 16.09 Fair CLR 19.6 3.2 34% 76.1 0.0
07 12:15 SW 26 G 37 16.09 Fair CLR 18.9 2.5 34% 76.15 0.0
07 11:55 SW 26 G 37 16.09 Fair CLR 18.4 3.2 37% 76.15 0.0
07 11:35 SW 30 G 39 16.09 Fair CLR 17.6 3.2 38% 76.2 0.0
07 11:15 SW 28 16.09 Fair CLR 16.5 2.6 40% 76.2 0.0
07 10:55 SW 31 16.09 Fair CLR 16.3 3.4 42% 76.23 0.0
07 10:35 SW 30 16.09 Fair CLR 15.4 3.6 46% 76.25 0.0
07 10:15 SW 28 16.09 Fair CLR 14.7 3.7 48% 76.25 0.0
07 09:55 SW 30 G 39 16.09 Fair CLR 13.7 4 52% 76.28 0.0
07 09:35 SW 31 G 41 16.09 Fair CLR 13.2 4.5 56% 76.28 0.0
07 09:15 SW 24 G 41 16.09 Fair CLR 11.8 4.8 62% 76.3 0.0
07 08:55 SW 30 G 37 16.09 Fair CLR 11 4.5 65% 76.33 0.0
07 08:35 SW 24 G 33 16.09 Fair CLR 9.9 5 72% 7 76.3 0.0
07 07:55 SW 20 16.09 Fair CLR 7.1 4.4 83% 4 76.33 0.0
07 07:35 SW 17 16.09 Fair CLR 6.1 4.2 88% 3 76.33 0.0
07 07:15 SW 11 16.09 Fair CLR 4.4 3.2 92% 2 76.3 0.0
07 06:55 SW 9 16.09 Fair CLR 3.2 2.1 8.9 2.2 93% 1 76.33 0.0
07 06:35 SW 15 16.09 Fair CLR 2.4 1.4 93% -1 76.33 0.0
07 06:15 SW 13 16.09 Fair CLR 2.7 1.6 93% -0 76.33 0.0
07 05:55 SW 9 16.09 Fair CLR 3.4 2.3 93% 1 76.33 0.0
07 05:35 SW 11 16.09 Fair CLR 3 1.8 92% 0 76.33 0.0
07 05:15 SW 11 16.09 Fair CLR 3.3 2.1 92% 1 76.33 0.0
07 04:55 SW 11 16.09 Fair CLR 3.5 2.1 91% 1 76.33 0.0
07 04:35 SW 11 16.09 Fair CLR 3.8 2.2 89% 1 76.35 0.0
07 04:15 SW 9 16.09 Fair CLR 4.4 2.9 90% 2 76.35 0.0
07 03:55 SW 11 16.09 Fair CLR 4.2 2.6 89% 2 76.38 0.0
07 03:35 SW 13 16.09 Fair CLR 4.6 2.8 88% 2 76.4 0.0
07 03:15 SW 13 16.09 Fair CLR 5.6 3.7 88% 3 76.4 0.0
07 02:55 W 13 16.09 Fair CLR 6.1 3.7 85% 4 76.43 0.0
07 02:35 W 11 16.09 Fair CLR 6.5 3.8 83% 5 76.43 0.0
07 02:15 W 13 16.09 Fair CLR 7 3.8 80% 5 76.43 0.0
07 01:55 W 11 16.09 Fair CLR 7.3 3.9 79% 5 76.45 0.0
07 01:35 W 13 16.09 Fair CLR 7.2 3.6 78% 5 76.48 0.0
07 01:15 W 13 16.09 Partly Cloudy SCT120 8.3 3.9 74% 6 76.45 0.0
07 00:55 W 13 16.09 Mostly Cloudy BKN120 8.8 3.8 13.9 8.8 71% 7 76.48 0.0
07 00:35 W 11 16.09 Overcast OVC120 9.6 3.9 68% 8 76.45 0.0
07 00:15 W 11 16.09 Mostly Cloudy BKN120 9.4 3.5 67% 8 76.48 0.0
06 23:55 W 11 16.09 Overcast OVC120 9.7 3.4 65% 8 76.48 0.0
06 23:15 W 9 16.09 Partly Cloudy SCT120 9.7 3 63% 9 76.45 0.0
06 22:55 W 7 16.09 Partly Cloudy SCT120 9.3 2.8 64% 9 76.45 0.0
06 22:15 W 7 16.09 Fair CLR 9.6 3.2 65% 9 76.48 0.0
06 21:55 Calm 16.09 Partly Cloudy SCT120 10.2 2.2 58% 76.45 0.0
06 21:35 NW 7 16.09 Mostly Cloudy SCT070 BKN120 10.1 2.8 61% 76.43 0.0
06 21:10 N 7 16.09 Overcast SCT070 OVC120 10.1 1.5 55% 76.43 0.0
06 20:55 NW 7 16.09 Overcast SCT070 OVC120 10.8 1.3 52% 76.43 0.0
06 20:35 N 11 16.09 Overcast SCT060 OVC120 11.6 1 48% 76.4 0.0
06 20:15 N 9 16.09 Overcast OVC060 13 0.8 44% 76.4 0.0
06 19:55 N 11 16.09 Overcast BKN070 OVC120 13.4 1 43% 76.38 0.0
06 19:35 N 11 16.09 Mostly Cloudy SCT070 BKN120 13.3 0.6 42% 76.38 0.0
06 19:15 N 13 16.09 Mostly Cloudy SCT070 BKN120 13.8 0.2 40% 76.38 0.0
06 18:55 N 15 16.09 Partly Cloudy SCT070 13.8 0.1 16.2 12.1 39% 76.38 0.0
06 18:35 N 13 16.09 Partly Cloudy SCT070 13.7 0.2 40% 76.4 0.0
06 17:55 N 15 16.09 Mostly Cloudy SCT060 BKN120 15.7 0.3 35% 76.38 0.0
06 17:35 NE 9 16.09 Mostly Cloudy BKN060 BKN110 15.3 0.5 37% 76.35 0.0
06 17:15 NW 17 16.09 Partly Cloudy SCT060 14.9 0.3 37% 76.38 0.0
06 16:35 N 17 16.09 Mostly Cloudy SCT060 BKN070 14.4 0.3 38% 76.4 0.0
06 16:15 N 20 16.09 Partly Cloudy SCT060 SCT065 14.9 0.7 38% 76.4 0.0
06 15:55 NW 9 16.09 Mostly Cloudy BKN060 13.6 1.4 44% 76.43 0.0
06 15:35 N 13 16.09 Mostly Cloudy BKN060 13.9 1.5 43% 76.45 0.0
06 15:15 N 13 16.09 Mostly Cloudy SCT048 BKN060 13.4 1.6 45% 76.45 0.0
06 14:55 NE 13 16.09 Overcast SCT047 OVC050 14.1 1.9 44% 76.45 0.0
06 14:35 N 6 16.09 Mostly Cloudy SCT047 BKN050 13.1 1.8 47% 76.48 0.0
06 14:15 NE 9 16.09 Partly Cloudy SCT043 14.5 1.9 43% 76.48 0.0
06 13:55 N 17 16.09 Mostly Cloudy BKN043 BKN048 13.2 2.5 49% 76.48 0.0
06 13:35 N 11 16.09 Mostly Cloudy BKN043 BKN049 13.2 2.3 48% 76.5 0.0
06 13:15 E 9 16.09 Mostly Cloudy BKN046 13.5 1.4 44% 76.5 0.0
06 12:55 NE 9 16.09 Overcast SCT040 OVC047 12 1.2 13.5 7 48% 76.53 0.0
06 12:35 NE 13 G 37 16.09 Mostly Cloudy SCT032 BKN040 BKN047 12 2.1 51% 76.53 0.0
06 12:15 NE 6 16.09 Overcast SCT027 BKN032 OVC047 11.3 2.4 55% 76.53 0.0
06 11:55 N 20 16.09 Mostly Cloudy SCT027 SCT036 BKN095 12.1 4.6 60% 76.53 0.0
06 11:35 N 11 16.09 Mostly Cloudy SCT022 SCT070 BKN095 11.3 4.4 63% 76.53 0.0
06 11:15 NW 13 16.09 Overcast BKN022 BKN065 OVC070 10.2 5.6 73% 76.56 0.0
06 10:55 N 13 16.09 Overcast SCT019 BKN023 OVC065 9.4 5 74% 8 76.56 0.0
06 10:35 N 13 16.09 Overcast SCT019 BKN070 OVC095 9.2 5.1 76% 7 76.56 0.0
06 10:15 N 7 16.09 Overcast OVC095 8.8 4.4 74% 8 76.56 0.0
06 09:55 N 11 16.09 Mostly Cloudy BKN060 BKN095 9 4.9 76% 8 76.53 0.0
06 09:35 N 9 16.09 Overcast BKN060 BKN080 OVC090 8.5 4.7 77% 7 76.5 0.0
06 09:15 N 11 16.09 Overcast SCT070 OVC090 8.3 5.1 80% 7 76.5 0.0
06 08:55 N 9 16.09 Overcast OVC070 8.1 4.4 78% 7 76.5 0.0
06 08:35 N 7 16.09 Overcast OVC070 8 5.5 84% 7 76.5 0.0
06 08:15 N 6 16.09 Overcast OVC070 7.8 5.1 83% 76.48 0.0
06 07:55 N 13 16.09 Overcast OVC070 7.7 5.7 87% 6 76.48 0.0
06 07:35 N 13 16.09 Overcast SCT070 OVC090 7.4 6.1 92% 5 76.45 0.0
06 06:55 N 11 16.09 Overcast OVC090 7 6.3 8 6.8 95% 5 76.38 0.0 0.03
06 06:35 N 9 16.09 Mostly Cloudy BKN090 6.8 6.1 95% 5 76.33 0.0
06 06:15 N 7 16.09 Partly Cloudy SCT090 6.9 6.2 95% 6 76.3 0.0
06 05:55 N 11 16.09 Overcast SCT070 OVC090 6.8 6.1 95% 5 76.28 0.0
06 05:35 N 9 16.09 Overcast SCT060 OVC070 6.9 6.1 95% 5 76.3 0.0
06 05:15 N 9 16.09 Light Drizzle SCT034 BKN060 OVC070 7 6.1 94% 5 76.28 0.0
06 04:55 N 9 16.09 Light Rain SCT034 BKN045 OVC075 7 6 93% 5 76.3 0.0
06 04:35 N 11 16.09 Light Drizzle BKN043 OVC050 7 5.6 91% 5 76.3 0.0
06 04:15 N 13 16.09 Light Drizzle BKN055 BKN070 OVC100 7.1 5.9 92% 5 76.3 0.0
06 03:55 N 11 16.09 Light Drizzle BKN050 SCT065 OVC100 7.1 5.9 92% 5 76.28 0.0 0.03 0.03
06 03:35 NW 11 16.09 Light Drizzle BKN060 BKN065 OVC080 7.3 6.1 92% 5 76.33 0.0 0.03
06 03:15 W 9 16.09 Overcast SCT060 OVC080 7.3 6.1 92% 6 76.33 0.0
06 02:55 NW 9 16.09 Overcast OVC080 7.3 6.1 92% 6 76.25 0.0
06 02:35 N 7 16.09 Overcast OVC080 7.4 6 91% 6 76.23 0.0
06 02:15 NW 7 16.09 Overcast OVC080 7.4 6 91% 6 76.25 0.0
06 01:55 N 7 16.09 Overcast OVC075 7.7 5.3 85% 7 76.25 0.0
06 01:35 N 6 16.09 Light Rain OVC075 7.9 4.7 80% 76.25 0.0
06 01:15 NE 7 16.09 Overcast OVC075 8 4.9 81% 7 76.25 0.0
06 00:55 NE 6 16.09 Overcast OVC075 7.8 5.3 10.8 7.7 84% 76.2 0.0
06 00:35 NE 9 16.09 Light Drizzle OVC075 7.8 5.2 84% 6 76.17 0.0
06 00:15 NE 11 16.09 Light Rain SCT042 BKN060 OVC075 7.8 5.1 83% 6 76.17 0.0
05 23:55 NE 7 16.09 Light Rain BKN044 OVC060 7.9 4.9 82% 7 76.2 0.0
05 23:35 NE 11 16.09 Overcast OVC070 7.9 4.8 81% 6 76.17 0.0
05 23:15 N 13 16.09 Overcast OVC070 7.9 4.9 82% 6 76.2 0.0
05 22:55 N 17 16.09 Light Rain OVC080 7.7 4.9 83% 5 76.2 0.0
05 22:35 N 19 16.09 Overcast OVC080 7.9 4.7 80% 5 76.15 0.0
05 22:15 N 20 16.09 Overcast OVC070 8.3 4.4 77% 5 76.17 0.0
05 21:55 N 26 16.09 Overcast OVC060 8.8 4 72% 6 76.17 0.0
05 21:35 N 20 16.09 Overcast SCT045 BKN050 OVC070 9.6 3.1 64% 7 76.17 0.0
05 21:15 N 22 16.09 Overcast BKN045 BKN050 OVC070 10 2.9 62% 7 76.12 0.0
05 20:55 NW 15 16.09 Overcast SCT045 OVC070 9.5 5.5 76% 8 76.12 0.0
05 20:35 N 11 16.09 Light Drizzle OVC070 9.8 5.1 73% 8 76.07 0.0
05 20:15 N 15 16.09 Light Rain OVC070 10.3 4 65% 76 0.0
05 19:55 N 13 16.09 Overcast OVC070 10.7 3.2 60% 76 0.0
05 19:35 N 17 16.09 Overcast OVC070 10.8 3 59% 76 0.0
05 19:15 N 20 16.09 Overcast SCT050 OVC070 10.5 3.7 63% 75.97 0.0
05 18:55 N 22 16.09 Overcast OVC070 10.9 3.1 13.8 10.7 59% 75.97 0.0
05 18:35 N 24 16.09 Overcast OVC070 11.4 3 57% 75.95 0.0
05 18:15 N 28 16.09 Overcast SCT037 OVC070 11.8 2.9 55% 75.95 0.0
05 17:55 N 24 16.09 Overcast BKN037 OVC070 12 2.9 54% 75.95 0.0
05 17:35 NE 24 G 35 16.09 Mostly Cloudy SCT037 BKN070 12.3 2.7 52% 75.95 0.0
05 17:15 N 20 G 31 16.09 Overcast SCT033 OVC070 12.5 2.1 49% 75.95 0.0
05 16:55 NE 20 G 31 16.09 Overcast SCT033 OVC070 12 3.3 56% 75.95 0.0
05 16:35 NE 20 G 39 16.09 Overcast OVC070 12.1 2.1 51% 75.97 0.0
05 16:15 NE 30 G 44 16.09 Overcast BKN070 OVC085 12.5 1.8 48% 75.97 0.0
05 15:55 NE 22 G 43 16.09 Overcast SCT040 OVC070 13 2.2 48% 75.97 0.0
05 15:35 NE 22 G 43 16.09 Mostly Cloudy SCT042 BKN070 12.9 2.4 49% 76 0.0
05 15:15 NE 30 G 44 16.09 Partly Cloudy SCT042 SCT070 SCT120 13.5 1.7 45% 75.97 0.0
05 14:55 NE 26 G 44 16.09 Mostly Cloudy SCT042 BKN070 BKN090 13.3 1.6 45% 75.97 0.0
05 14:35 NE 30 G 37 16.09 Mostly Cloudy SCT034 BKN070 13.4 2 46% 75.97 0.0
05 14:15 NE 24 G 33 16.09 Overcast SCT029 OVC034 13.1 3.6 53% 75.97 0.0
05 13:55 NE 24 G 33 16.09 Overcast OVC029 12.2 4.1 58% 76 0.0
05 13:35 E 26 G 37 16.09 Overcast BKN027 OVC033 11.9 4.9 63% 76 0.0
05 13:15 NE 24 G 31 16.09 Mostly Cloudy BKN025 BKN030 12 5.2 63% 76 0.0
05 12:55 NE 22 G 35 16.09 Partly Cloudy SCT023 SCT030 SCT060 10.9 5.1 11.2 8.3 68% 76 0.0
05 12:35 NE 26 16.09 Mostly Cloudy SCT022 SCT027 BKN070 10.5 5.5 71% 76 0.0
05 11:55 NE 26 16.09 Overcast BKN070 OVC080 8.9 5.7 81% 6 76 0.0
05 11:35 NE 26 16.09 Light Rain SCT055 OVC070 8.4 5.4 82% 5 76.02 0.0
05 11:15 NE 17 16.09 Overcast SCT055 OVC070 9 5 76% 7 76.05 0.0
05 10:55 NE 30 G 41 16.09 Overcast OVC070 9.9 3.1 63% 7 76 0.0
05 10:35 NE 26 G 35 16.09 Overcast OVC070 10.4 3.1 61% 75.97 0.0
05 10:15 NE 26 G 35 16.09 Overcast OVC070 10.8 3 59% 75.95 0.0
05 09:55 NE 30 G 43 16.09 Overcast OVC070 10.9 2.7 57% 75.92 0.0
05 09:35 NE 30 G 39 16.09 Overcast OVC070 10.9 2.7 57% 75.92 0.0
05 08:50 NE 26 G 35 16.09 Overcast OVC070 10.5 2.7 59% 75.87 0.0
05 08:35 NE 20 G 33 16.09 Overcast OVC070 10.6 2.7 58% 75.87 0.0
05 08:15 NE 19 G 35 16.09 Overcast OVC070 10.6 2.3 57% 75.87 0.0
05 07:35 NE 22 G 35 16.09 Overcast OVC070 10.7 1.5 53% 75.79 0.0
05 07:15 NE 28 G 37 16.09 Overcast OVC070 10.8 1.2 52% 75.74 0.0
05 06:55 NE 24 G 33 16.09 Overcast OVC070 11.3 0.9 14.3 11.3 49% 75.74 0.0
05 06:15 NE 22 G 31 16.09 Overcast OVC060 11.8 1 48% 75.72 0.0
05 05:55 NE 24 G 33 16.09 Overcast OVC060 11.9 1.1 48% 75.67 0.0
05 05:35 NE 24 16.09 Overcast OVC060 12 1.7 50% 75.62 0.0
05 05:15 NE 30 G 43 16.09 Overcast OVC060 12.1 1.9 50% 75.57 0.0
05 04:55 NE 26 G 35 16.09 Overcast OVC050 12.2 2.1 50% 75.57 0.0
05 04:35 NE 26 G 35 16.09 Overcast OVC050 12.3 2.2 50% 75.59 0.0
05 04:15 NE 24 G 39 16.09 Overcast OVC050 12.4 2.3 50% 75.57 0.0
05 03:55 NE 26 G 41 16.09 Overcast OVC050 12.6 2.4 50% 75.54 0.0
05 03:35 NE 26 G 41 16.09 Overcast OVC050 12.7 2.7 51% 75.54 0.0
05 03:15 NE 26 G 37 16.09 Overcast OVC050 13 2.9 51% 75.54 0.0
05 02:55 N 31 G 46 16.09 Overcast OVC050 13.2 3.6 52% 75.51 0.0
05 02:35 NE 28 G 46 16.09 Overcast BKN060 OVC070 13.5 3.4 51% 75.46 0.0
05 02:15 NE 31 G 50 16.09 Overcast BKN080 OVC090 13.7 3.4 50% 75.44 0.0
05 01:55 NE 31 G 44 16.09 Mostly Cloudy BKN080 BKN090 13.8 5.9 59% 75.44 0.0
05 01:35 N 30 G 37 16.09 Mostly Cloudy BKN085 14.1 7.3 64% 75.44 0.0
05 01:15 NE 26 16.09 Partly Cloudy SCT085 14.2 7.5 64% 75.39 0.0
05 00:55 NE 26 G 41 16.09 Fair CLR 14.1 7.9 27.8 13.7 67% 75.36 0.0 0.03
05 00:35 NE 26 G 43 16.09 Fair CLR 13.8 8.7 72% 75.34 0.0
05 00:15 NE 30 G 44 16.09 Fair CLR 13.7 9.4 75% 75.31 0.0
04 23:55 NE 24 G 41 16.09 Fair CLR 14 9.9 77% 75.31 0.0
04 23:35 NE 30 G 44 16.09 Fair CLR 14.8 10.1 74% 75.29 0.0
04 23:15 NE 37 G 54 16.09 Mostly Cloudy and Breezy SCT075 BKN100 15.8 10.2 70% 75.31 0.0
04 22:55 NE 41 G 67 16.09 Mostly Cloudy and Breezy SCT050 SCT065 BKN100 18.1 9 56% 75.36 0.0 0.03
04 22:35 E 22 G 31 16.09 Light Rain SCT050 SCT065 OVC090 21.9 13.3 58% 75.26 0.0 0.03
04 22:15 SW 15 16.09 Light Rain BKN090 BKN120 23.1 13.6 55% 75.29 0.0
04 21:55 SE 7 16.09 Partly Cloudy SCT110 23.6 12.1 49% 75.21 0.0
04 21:35 SE 7 16.09 Fair CLR 23.9 11.8 47% 25 75.18 0.0
04 21:15 S 13 16.09 Partly Cloudy SCT120 24.3 11.8 46% 25 75.16 0.0
04 20:55 S 9 16.09 Fair CLR 24.3 11.7 45% 25 75.16 0.0
04 20:35 S 13 16.09 Fair CLR 25 11.7 43% 26 75.11 0.0
04 20:15 S 13 16.09 Fair CLR 25.6 11.7 42% 26 75.08 0.0
04 19:55 S 13 16.09 Fair CLR 26.1 11.5 40% 26 75.08 0.0
04 19:35 S 15 16.09 Fair CLR 26.7 11.5 39% 27 75.08 0.0
04 19:15 SE 7 16.09 Partly Cloudy SCT090 27.6 6.4 26% 27 75.08 0.0
04 18:55 NE 15 16.09 Fair CLR 27.9 6.8 31 27 26% 27 75.08 0.0
04 18:35 NE 11 16.09 Partly Cloudy SCT110 28.5 6.6 25% 27 75.08 0.0
04 18:15 E 15 16.09 Fair CLR 28.6 6 24% 27 75.08 0.0
04 17:55 SE 9 16.09 Fair CLR 28.6 5.6 23% 27 75.08 0.0
04 17:35 SE 19 16.09 Fair CLR 28.9 5.2 22% 27 75.11 0.0
04 16:30 S 22 G 30 16.09 Fair CLR 29.1 6.3 24% 28 75.13 0.0
04 16:15 SE 11 16.09 Fair CLR 29.8 5.4 21% 28 75.13 0.0
04 15:55 S 11 11.27 Fair CLR 30.3 5.3 21% 29 75.13 0.0
04 15:35 S 11 16.09 Fair CLR 30.5 4.3 19% 29 75.18 0.0
04 15:15 SE 9 16.09 Fair CLR 29.6 4.7 21% 28 75.21 0.0
04 14:55 SE 15 16.09 Fair CLR 29.9 4.6 20% 28 75.21 0.0
Date Time (cdt) Wind (kph) Vis. (km) Weather Sky Cond. Air Dwpt Max. Min. Relative Humidity Wind Chill (°C) Heat Index (°C) altimeter (cm) sea level (mb) 1 hr 3 hr 6 hr
6 hour
Temperature (ºC) Pressure Precipitation (cm)